Time;durP1;ratioP1;P1;durP2;ratioP2;P2;SDS_P1;SDS_P2;PMS_P1;PMS_P2;Temp;Humidity;BMP_temperature;BMP_pressure;BME280_temperature;BME280_humidity;BME280_pressure;Samples;Min_cycle;Max_cycle;Signal;HPM_P1;HPM_P2
2022/09/15 00:01:22;;;;;;;;;;;23.10;84.80;;;;;;5051937;28;20425;-61
2022/09/15 00:03:48;;;;;;;;;;;23.30;85.00;;;;;;5036764;28;20019;-62
2022/09/15 00:06:13;;;;;;;;;;;23.30;84.90;;;;;;5034458;28;19925;-61
2022/09/15 00:08:39;;;;;;;;;;;23.20;85.00;;;;;;5024974;28;20019;-62
2022/09/15 00:11:24;;;;;;;;;;;23.20;84.90;;;;;;5035242;28;20382;-62
2022/09/15 00:13:50;;;;;;;;;;;23.40;84.00;;;;;;5050054;28;19948;-62
2022/09/15 00:16:16;;;;;;;;;;;23.40;85.20;;;;;;5066095;28;20375;-64
2022/09/15 00:18:42;;;;;;;;;;;23.50;85.30;;;;;;5040230;28;20341;-62
2022/09/15 00:21:09;;;;;;;;;;;23.20;85.20;;;;;;5037965;28;19925;-61
2022/09/15 00:23:35;;;;;;;;;;;23.10;85.30;;;;;;5050921;28;19924;-62
2022/09/15 00:26:01;;;;;;;;;;;23.30;85.40;;;;;;5046617;28;19979;-61
2022/09/15 00:28:26;;;;;;;;;;;23.50;85.30;;;;;;5033688;28;19925;-62
2022/09/15 00:30:53;;;;;;;;;;;23.40;85.10;;;;;;5034486;28;20027;-61
2022/09/15 00:33:19;;;;;;;;;;;23.50;85.40;;;;;;5039702;28;20336;-62
2022/09/15 00:35:45;;;;;;;;;;;23.50;85.40;;;;;;5047913;28;19920;-62
2022/09/15 00:38:11;;;;;;;;;;;23.30;85.00;;;;;;5039221;28;19925;-62
2022/09/15 00:40:52;;;;;;;;;;;23.60;85.30;;;;;;5041247;28;19931;-62
2022/09/15 00:43:18;;;;;;;;;;;23.30;84.00;;;;;;5040242;28;20363;-62
2022/09/15 00:45:44;;;;;;;;;;;23.30;85.40;;;;;;5033332;28;19926;-62
2022/09/15 00:48:18;;;;;;;;;;;23.30;85.10;;;;;;5048418;28;19925;-61
2022/09/15 00:50:44;;;;;;;;;;;23.20;84.00;;;;;;5034617;28;19991;-61
2022/09/15 00:53:10;;;;;;;;;;;23.30;85.30;;;;;;5024260;28;20390;-62
2022/09/15 00:55:37;;;;;;;;;;;23.20;85.00;;;;;;5033618;28;19980;-63
2022/09/15 00:58:05;;;;;;;;;;;23.20;85.30;;;;;;5039252;28;19984;-61
2022/09/15 01:00:31;;;;;;;;;;;23.30;85.30;;;;;;5032246;28;20067;-62
2022/09/15 01:02:57;;;;;;;;;;;23.40;85.10;;;;;;5033640;28;20004;-62
2022/09/15 01:05:25;;;;;;;;;;;23.40;85.20;;;;;;5032357;28;19948;-62
2022/09/15 01:07:55;;;;;;;;;;;23.40;85.40;;;;;;5045734;28;19925;-62
2022/09/15 01:10:22;;;;;;;;;;;23.60;84.10;;;;;;5050878;28;19929;-62
2022/09/15 01:12:48;;;;;;;;;;;23.30;85.30;;;;;;5054252;28;19992;-61
2022/09/15 01:15:14;;;;;;;;;;;23.50;84.80;;;;;;5053021;28;19976;-61
2022/09/15 01:17:52;;;;;;;;;;;23.30;84.90;;;;;;5044818;28;20452;-62
2022/09/15 01:20:30;;;;;;;;;;;23.40;84.70;;;;;;5037546;28;19925;-61
2022/09/15 01:23:04;;;;;;;;;;;23.10;83.90;;;;;;5053217;28;19936;-62
2022/09/15 01:25:34;;;;;;;;;;;23.30;84.00;;;;;;5024073;28;19984;-61
2022/09/15 01:28:12;;;;;;;;;;;23.30;85.40;;;;;;5053539;28;19976;-61
2022/09/15 01:30:43;;;;;;;;;;;23.50;84.20;;;;;;5059398;28;19925;-62
2022/09/15 01:33:11;;;;;;;;;;;23.40;85.40;;;;;;5020073;28;19933;-61
2022/09/15 01:35:43;;;;;;;;;;;23.40;84.10;;;;;;5019358;28;19925;-61
2022/09/15 01:38:09;;;;;;;;;;;23.20;84.00;;;;;;5038087;28;20043;-63
2022/09/15 01:40:36;;;;;;;;;;;23.10;85.00;;;;;;5050520;28;20371;-62
2022/09/15 01:43:02;;;;;;;;;;;23.40;85.50;;;;;;5039635;28;19974;-62
2022/09/15 01:45:31;;;;;;;;;;;23.00;85.10;;;;;;5055941;28;20019;-62
2022/09/15 01:47:57;;;;;;;;;;;23.10;84.00;;;;;;5052126;28;19925;-61
2022/09/15 01:50:27;;;;;;;;;;;23.40;85.20;;;;;;5044716;28;19925;-62
2022/09/15 01:52:54;;;;;;;;;;;23.30;85.50;;;;;;5038939;28;19948;-62
2022/09/15 01:55:21;;;;;;;;;;;23.40;85.60;;;;;;5052060;28;19932;-61
2022/09/15 01:57:47;;;;;;;;;;;23.20;85.50;;;;;;5035563;28;20041;-61
2022/09/15 02:00:13;;;;;;;;;;;23.40;85.40;;;;;;5037256;28;19925;-61
2022/09/15 02:02:42;;;;;;;;;;;23.40;85.20;;;;;;5037746;28;19932;-62
2022/09/15 02:05:18;;;;;;;;;;;23.20;84.70;;;;;;5038801;28;19931;-61
2022/09/15 02:07:47;;;;;;;;;;;23.40;84.20;;;;;;5049867;28;20442;-62
2022/09/15 02:10:13;;;;;;;;;;;23.30;84.20;;;;;;5031854;28;20438;-61
2022/09/15 02:12:43;;;;;;;;;;;23.20;85.30;;;;;;5052962;28;20011;-61
2022/09/15 02:15:17;;;;;;;;;;;23.10;84.10;;;;;;5036493;28;20012;-62
2022/09/15 02:17:44;;;;;;;;;;;23.40;84.30;;;;;;5034924;28;19925;-61
2022/09/15 02:20:16;;;;;;;;;;;23.20;85.60;;;;;;5045565;28;19972;-61
2022/09/15 02:22:44;;;;;;;;;;;23.40;84.20;;;;;;5049055;28;19925;-62
2022/09/15 02:25:11;;;;;;;;;;;23.20;85.60;;;;;;5028216;28;19925;-62
2022/09/15 02:27:38;;;;;;;;;;;23.40;85.60;;;;;;5030130;28;20417;-62
2022/09/15 02:30:05;;;;;;;;;;;23.10;85.60;;;;;;5058849;28;19925;-62
2022/09/15 02:32:31;;;;;;;;;;;23.20;85.30;;;;;;5041104;28;19924;-62
2022/09/15 02:34:57;;;;;;;;;;;23.40;85.60;;;;;;5044316;28;20486;-61
2022/09/15 02:37:23;;;;;;;;;;;23.20;85.60;;;;;;5043277;28;19932;-62
2022/09/15 02:39:53;;;;;;;;;;;23.10;85.60;;;;;;5038254;28;19986;-62
2022/09/15 02:42:29;;;;;;;;;;;23.30;85.80;;;;;;5052353;28;20344;-62
2022/09/15 02:44:54;;;;;;;;;;;23.00;84.40;;;;;;5035565;28;19925;-62
2022/09/15 02:47:20;;;;;;;;;;;23.30;85.60;;;;;;5027235;28;19925;-61
2022/09/15 02:49:45;;;;;;;;;;;23.20;86.00;;;;;;5036379;28;19943;-61
2022/09/15 02:52:11;;;;;;;;;;;23.40;85.80;;;;;;5043971;28;20382;-61
2022/09/15 02:54:37;;;;;;;;;;;23.20;85.60;;;;;;5040094;28;20347;-62
2022/09/15 02:57:02;;;;;;;;;;;23.60;85.90;;;;;;5032376;28;20003;-62
2022/09/15 03:00:11;;;;;;;;;;;23.30;85.60;;;;;;5036284;28;19932;-62
2022/09/15 03:02:14;;;;;;;;;;;23.20;85.70;;;;;;5036111;28;20290;-62
2022/09/15 03:04:39;;;;;;;;;;;23.30;85.70;;;;;;5034412;28;20007;-62
2022/09/15 03:07:05;;;;;;;;;;;23.20;85.60;;;;;;5046208;28;20391;-62
2022/09/15 03:09:31;;;;;;;;;;;23.50;85.70;;;;;;5055258;28;19975;-62
2022/09/15 03:11:56;;;;;;;;;;;23.10;85.40;;;;;;5046681;28;20438;-61
2022/09/15 03:14:22;;;;;;;;;;;23.20;85.60;;;;;;5035844;28;20274;-61
2022/09/15 03:16:48;;;;;;;;;;;23.20;85.60;;;;;;5038203;28;19928;-61
2022/09/15 03:19:14;;;;;;;;;;;23.10;85.40;;;;;;5046901;28;19933;-61
2022/09/15 03:21:39;;;;;;;;;;;23.50;85.50;;;;;;5047664;28;19960;-61
2022/09/15 03:24:05;;;;;;;;;;;23.40;85.70;;;;;;5035175;28;20291;-62
2022/09/15 03:26:31;;;;;;;;;;;23.20;85.50;;;;;;5036500;28;20376;-62
2022/09/15 03:28:56;;;;;;;;;;;23.20;85.60;;;;;;5045023;28;19932;-61
2022/09/15 03:31:22;;;;;;;;;;;23.20;85.50;;;;;;5017336;28;20287;-61
2022/09/15 03:33:48;;;;;;;;;;;23.10;85.60;;;;;;5049644;28;20417;-61
2022/09/15 03:36:13;;;;;;;;;;;23.00;85.40;;;;;;5052554;28;19925;-61
2022/09/15 03:38:39;;;;;;;;;;;23.20;85.60;;;;;;5027440;28;19924;-62
2022/09/15 03:41:06;;;;;;;;;;;23.10;85.30;;;;;;5034370;28;19925;-62
2022/09/15 03:43:32;;;;;;;;;;;23.10;85.70;;;;;;5053106;28;19982;-61
2022/09/15 03:45:58;;;;;;;;;;;23.40;85.60;;;;;;5041926;28;19925;-62
2022/09/15 03:48:24;;;;;;;;;;;23.20;85.50;;;;;;5036475;28;19925;-62
2022/09/15 03:50:49;;;;;;;;;;;23.10;85.80;;;;;;5067361;28;20406;-62
2022/09/15 03:53:15;;;;;;;;;;;23.20;85.80;;;;;;5053766;28;19925;-63
2022/09/15 03:55:41;;;;;;;;;;;23.00;85.40;;;;;;5041897;28;20410;-62
2022/09/15 03:58:07;;;;;;;;;;;23.20;85.60;;;;;;5041803;28;20007;-62
2022/09/15 04:00:33;;;;;;;;;;;23.00;85.30;;;;;;5051791;28;19924;-62
2022/09/15 04:02:58;;;;;;;;;;;23.00;85.60;;;;;;5050988;28;19924;-62
2022/09/15 04:05:24;;;;;;;;;;;22.90;85.40;;;;;;5034963;28;19926;-62
2022/09/15 04:07:49;;;;;;;;;;;23.10;85.40;;;;;;5034255;28;19925;-62
2022/09/15 04:10:15;;;;;;;;;;;23.30;85.60;;;;;;5020305;28;20011;-62
2022/09/15 04:12:41;;;;;;;;;;;23.10;85.60;;;;;;5028051;28;19928;-61
2022/09/15 04:15:07;;;;;;;;;;;23.30;85.60;;;;;;5038902;28;19925;-61
2022/09/15 04:17:32;;;;;;;;;;;23.20;85.10;;;;;;5034125;28;19960;-61
2022/09/15 04:19:58;;;;;;;;;;;23.30;85.70;;;;;;5043378;28;20019;-62
2022/09/15 04:22:24;;;;;;;;;;;22.80;85.30;;;;;;5049295;28;19987;-61
2022/09/15 04:24:49;;;;;;;;;;;23.10;85.60;;;;;;5034782;28;20024;-62
2022/09/15 04:27:15;;;;;;;;;;;23.30;85.50;;;;;;5046244;28;20024;-62
2022/09/15 04:29:41;;;;;;;;;;;23.10;85.80;;;;;;5028214;28;20348;-62
2022/09/15 04:32:07;;;;;;;;;;;23.20;85.70;;;;;;5043015;28;19947;-62
2022/09/15 04:34:33;;;;;;;;;;;23.20;85.70;;;;;;5018814;28;19979;-62
2022/09/15 04:36:58;;;;;;;;;;;22.90;85.40;;;;;;5043643;28;20015;-65
2022/09/15 04:39:24;;;;;;;;;;;23.00;85.50;;;;;;5033844;28;19933;-62
2022/09/15 04:41:50;;;;;;;;;;;23.10;86.10;;;;;;5039979;28;19925;-62
2022/09/15 04:44:15;;;;;;;;;;;23.20;85.60;;;;;;5043997;28;19978;-62
2022/09/15 04:46:41;;;;;;;;;;;23.20;85.30;;;;;;5053796;28;19929;-62
2022/09/15 04:49:07;;;;;;;;;;;23.10;85.60;;;;;;5034623;28;19995;-62
2022/09/15 04:51:33;;;;;;;;;;;23.20;85.50;;;;;;5052218;28;20430;-63
2022/09/15 04:53:58;;;;;;;;;;;23.30;85.80;;;;;;5040055;28;20386;-62
2022/09/15 04:56:24;;;;;;;;;;;23.10;85.30;;;;;;5033747;28;19999;-62
2022/09/15 04:58:54;;;;;;;;;;;23.00;85.60;;;;;;5039980;28;20351;-61
2022/09/15 05:01:20;;;;;;;;;;;23.30;85.90;;;;;;5016390;28;19932;-62
2022/09/15 05:03:46;;;;;;;;;;;23.00;85.70;;;;;;5045438;28;20295;-63
2022/09/15 05:06:13;;;;;;;;;;;23.10;85.50;;;;;;5015745;28;19932;-63
2022/09/15 05:08:38;;;;;;;;;;;23.10;85.90;;;;;;5018970;28;19925;-62
2022/09/15 05:11:05;;;;;;;;;;;23.20;85.60;;;;;;5043050;28;19975;-61
2022/09/15 05:13:31;;;;;;;;;;;23.00;85.80;;;;;;5039227;28;19936;-62
2022/09/15 05:16:02;;;;;;;;;;;23.00;85.40;;;;;;5041338;28;19925;-62
2022/09/15 05:18:27;;;;;;;;;;;23.00;85.60;;;;;;5015425;28;20441;-61
2022/09/15 05:21:00;;;;;;;;;;;23.20;85.40;;;;;;5033465;28;19925;-62
2022/09/15 05:23:26;;;;;;;;;;;23.10;84.40;;;;;;5016739;28;20028;-62
2022/09/15 05:25:55;;;;;;;;;;;22.90;85.50;;;;;;5033317;28;19928;-62
2022/09/15 05:28:20;;;;;;;;;;;22.90;84.20;;;;;;5048302;28;20027;-63
2022/09/15 05:30:46;;;;;;;;;;;23.10;85.30;;;;;;5021967;28;19971;-62
2022/09/15 05:33:12;;;;;;;;;;;23.00;85.30;;;;;;5023886;28;19925;-61
2022/09/15 05:35:38;;;;;;;;;;;23.20;85.30;;;;;;5028319;28;19931;-63
2022/09/15 05:38:03;;;;;;;;;;;23.00;85.40;;;;;;5034924;28;19944;-62
2022/09/15 05:40:29;;;;;;;;;;;23.20;85.30;;;;;;5033048;28;19929;-61
2022/09/15 05:42:54;;;;;;;;;;;23.10;85.40;;;;;;5049624;28;19925;-61
2022/09/15 05:45:20;;;;;;;;;;;23.30;85.40;;;;;;5037273;28;19936;-62
2022/09/15 05:47:46;;;;;;;;;;;23.20;85.40;;;;;;5033322;28;19956;-63
2022/09/15 05:50:13;;;;;;;;;;;23.00;85.20;;;;;;5042159;28;19925;-63
2022/09/15 05:52:39;;;;;;;;;;;23.10;85.50;;;;;;5043647;28;19921;-62
2022/09/15 05:55:04;;;;;;;;;;;23.10;85.30;;;;;;5036739;28;19925;-63
2022/09/15 05:57:31;;;;;;;;;;;23.20;85.20;;;;;;5037148;28;20421;-62
2022/09/15 05:59:56;;;;;;;;;;;23.00;85.50;;;;;;5043777;28;19924;-63
2022/09/15 06:02:22;;;;;;;;;;;22.90;85.10;;;;;;5048753;28;20422;-62
2022/09/15 06:04:47;;;;;;;;;;;23.10;85.40;;;;;;5054345;28;20260;-62
2022/09/15 06:07:13;;;;;;;;;;;23.10;85.20;;;;;;5052163;28;20327;-69
2022/09/15 06:09:39;;;;;;;;;;;23.40;85.40;;;;;;5037025;28;19952;-62
2022/09/15 06:12:04;;;;;;;;;;;23.20;85.00;;;;;;5036604;28;19925;-63
2022/09/15 06:14:30;;;;;;;;;;;23.40;85.10;;;;;;5028979;28;19973;-62
2022/09/15 06:16:56;;;;;;;;;;;23.40;85.20;;;;;;5016608;28;20389;-63
2022/09/15 06:19:22;;;;;;;;;;;23.20;85.10;;;;;;5024452;28;20012;-61
2022/09/15 06:21:48;;;;;;;;;;;23.00;84.20;;;;;;5016583;28;20306;-62
2022/09/15 06:24:16;;;;;;;;;;;23.10;85.10;;;;;;5024299;28;19925;-63
2022/09/15 06:26:42;;;;;;;;;;;23.30;83.80;;;;;;5034329;28;19925;-62
2022/09/15 06:29:10;;;;;;;;;;;23.10;84.60;;;;;;5023932;28;19926;-65
2022/09/15 06:31:35;;;;;;;;;;;23.30;85.00;;;;;;5043272;28;19925;-62
2022/09/15 06:34:02;;;;;;;;;;;23.70;84.90;;;;;;5003434;28;19937;-62
2022/09/15 06:36:28;;;;;;;;;;;23.30;84.50;;;;;;5025243;28;19971;-62
2022/09/15 06:38:54;;;;;;;;;;;23.50;84.50;;;;;;5034501;28;20012;-63
2022/09/15 06:41:20;;;;;;;;;;;23.30;84.20;;;;;;5033965;28;20471;-62
2022/09/15 06:43:47;;;;;;;;;;;23.50;84.40;;;;;;5031313;28;19925;-70
2022/09/15 06:46:17;;;;;;;;;;;23.40;84.20;;;;;;5017969;28;19932;-70
2022/09/15 06:48:43;;;;;;;;;;;23.50;83.00;;;;;;5030103;28;19965;-69
2022/09/15 06:51:09;;;;;;;;;;;23.70;84.20;;;;;;5019199;28;19925;-70
2022/09/15 06:53:36;;;;;;;;;;;23.70;84.30;;;;;;5019677;28;19921;-70
2022/09/15 06:56:06;;;;;;;;;;;23.70;84.30;;;;;;5025859;28;19969;-70
2022/09/15 06:58:33;;;;;;;;;;;23.70;82.90;;;;;;5033699;28;19932;-70
2022/09/15 07:01:03;;;;;;;;;;;23.40;84.20;;;;;;5035775;28;19929;-70
2022/09/15 07:03:29;;;;;;;;;;;23.50;84.20;;;;;;5029262;28;20338;-69
2022/09/15 07:05:55;;;;;;;;;;;23.90;84.30;;;;;;5024641;28;19964;-70
2022/09/15 07:08:21;;;;;;;;;;;23.70;84.00;;;;;;5030822;28;20410;-69
2022/09/15 07:10:47;;;;;;;;;;;23.50;83.50;;;;;;5029264;28;19921;-62
2022/09/15 07:13:12;;;;;;;;;;;23.70;83.80;;;;;;5035602;28;20043;-63
2022/09/15 07:15:39;;;;;;;;;;;23.80;83.60;;;;;;5037472;28;20355;-63
2022/09/15 07:18:05;;;;;;;;;;;23.70;83.20;;;;;;5050783;28;20023;-64
2022/09/15 07:20:31;;;;;;;;;;;23.80;83.50;;;;;;5042166;28;20024;-63
2022/09/15 07:22:56;;;;;;;;;;;23.80;83.70;;;;;;5036706;28;19970;-70
2022/09/15 07:25:22;;;;;;;;;;;23.90;83.40;;;;;;5054976;28;19976;-70
2022/09/15 07:27:47;;;;;;;;;;;24.00;83.60;;;;;;5043592;28;19925;-64
2022/09/15 07:30:13;;;;;;;;;;;24.00;83.40;;;;;;5053841;28;20358;-64
2022/09/15 07:32:39;;;;;;;;;;;23.80;83.30;;;;;;5047529;28;20302;-62
2022/09/15 07:35:05;;;;;;;;;;;23.80;83.50;;;;;;5054720;28;20019;-62
2022/09/15 07:37:32;;;;;;;;;;;23.90;83.10;;;;;;5050456;28;20070;-62
2022/09/15 07:39:58;;;;;;;;;;;24.00;83.10;;;;;;5044773;28;19925;-63
2022/09/15 07:42:24;;;;;;;;;;;24.00;83.30;;;;;;5054369;28;19921;-63
2022/09/15 07:44:50;;;;;;;;;;;23.80;83.30;;;;;;5069490;28;20357;-62
2022/09/15 07:47:16;;;;;;;;;;;24.00;83.50;;;;;;5054475;28;20382;-62
2022/09/15 07:49:42;;;;;;;;;;;23.90;83.30;;;;;;5054008;28;19925;-62
2022/09/15 07:52:08;;;;;;;;;;;23.60;83.20;;;;;;5053536;28;19932;-62
2022/09/15 07:54:34;;;;;;;;;;;23.70;83.40;;;;;;5069973;28;19925;-62
2022/09/15 07:57:00;;;;;;;;;;;23.50;83.10;;;;;;5054497;28;20012;-62
2022/09/15 07:59:26;;;;;;;;;;;23.90;83.60;;;;;;5052243;28;19926;-61
2022/09/15 08:01:51;;;;;;;;;;;23.90;83.30;;;;;;5046573;28;19932;-63
2022/09/15 08:04:17;;;;;;;;;;;23.90;83.50;;;;;;5034967;28;19925;-61
2022/09/15 08:06:43;;;;;;;;;;;23.80;83.20;;;;;;5034449;28;19925;-61
2022/09/15 08:09:13;;;;;;;;;;;24.00;83.60;;;;;;5049554;28;19998;-62
2022/09/15 08:11:40;;;;;;;;;;;24.00;83.40;;;;;;5040701;28;19933;-69
2022/09/15 08:14:05;;;;;;;;;;;24.00;83.60;;;;;;5033560;28;20414;-68
2022/09/15 08:16:31;;;;;;;;;;;24.20;83.20;;;;;;5034432;28;19969;-68
2022/09/15 08:18:57;;;;;;;;;;;24.10;83.50;;;;;;5054244;28;20038;-61
2022/09/15 08:21:22;;;;;;;;;;;24.10;83.30;;;;;;5051111;28;20023;-62
2022/09/15 08:23:51;;;;;;;;;;;24.00;83.30;;;;;;5054258;28;19925;-62
2022/09/15 08:26:17;;;;;;;;;;;23.90;81.90;;;;;;5053968;28;20409;-62
2022/09/15 08:28:43;;;;;;;;;;;24.30;83.40;;;;;;5054142;28;19978;-62
2022/09/15 08:31:10;;;;;;;;;;;24.30;83.10;;;;;;5053120;28;19936;-62
2022/09/15 08:33:35;;;;;;;;;;;24.10;83.20;;;;;;5052321;28;19925;-61
2022/09/15 08:36:02;;;;;;;;;;;24.50;82.90;;;;;;5053908;28;19931;-62
2022/09/15 08:38:28;;;;;;;;;;;24.50;83.00;;;;;;5053998;28;20331;-61
2022/09/15 08:41:13;;;;;;;;;;;24.30;82.50;;;;;;5052870;28;19976;-62
2022/09/15 08:43:40;;;;;;;;;;;24.40;81.60;;;;;;5031406;28;19931;-62
2022/09/15 08:46:08;;;;;;;;;;;24.50;83.00;;;;;;5031766;28;20379;-62
2022/09/15 08:48:35;;;;;;;;;;;24.20;82.90;;;;;;5032601;28;20374;-64
2022/09/15 08:51:02;;;;;;;;;;;24.10;83.00;;;;;;5014481;28;19929;-62
2022/09/15 08:53:30;;;;;;;;;;;24.20;83.10;;;;;;5031934;28;20347;-61
2022/09/15 08:55:57;;;;;;;;;;;24.20;83.10;;;;;;5033365;28;20264;-62
2022/09/15 08:58:24;;;;;;;;;;;24.30;83.20;;;;;;5037086;28;20282;-69
2022/09/15 09:01:09;;;;;;;;;;;24.20;83.30;;;;;;5052293;28;19979;-68
2022/09/15 09:03:53;;;;;;;;;;;24.30;82.10;;;;;;5042482;28;19933;-70
2022/09/15 09:06:21;;;;;;;;;;;24.00;82.10;;;;;;5035028;28;20387;-70
2022/09/15 09:08:50;;;;;;;;;;;24.20;82.20;;;;;;5044555;28;19947;-71
2022/09/15 09:11:39;;;;;;;;;;;24.00;83.40;;;;;;5069854;28;19971;-68
2022/09/15 09:14:23;;;;;;;;;;;23.80;82.10;;;;;;5007225;28;20025;-70
2022/09/15 09:17:07;;;;;;;;;;;23.90;82.80;;;;;;5011664;28;20032;-61
2022/09/15 09:19:48;;;;;;;;;;;24.10;82.30;;;;;;5006997;28;19929;-61
2022/09/15 09:22:14;;;;;;;;;;;24.00;82.30;;;;;;5010610;28;20048;-61
2022/09/15 09:24:40;;;;;;;;;;;24.20;83.70;;;;;;5009936;28;20028;-61
2022/09/15 09:27:08;;;;;;;;;;;24.00;83.30;;;;;;4993246;28;20367;-63
2022/09/15 09:29:48;;;;;;;;;;;23.90;83.50;;;;;;4995912;28;19988;-61
2022/09/15 09:32:23;;;;;;;;;;;24.20;82.20;;;;;;4996809;28;19944;-65
2022/09/15 09:34:58;;;;;;;;;;;24.30;83.60;;;;;;5012874;28;19996;-63
2022/09/15 09:37:24;;;;;;;;;;;23.90;81.70;;;;;;5015231;28;19925;-64
2022/09/15 09:39:50;;;;;;;;;;;24.30;83.00;;;;;;4998969;28;19925;-64
2022/09/15 09:42:17;;;;;;;;;;;24.40;82.70;;;;;;4992211;28;19977;-64
2022/09/15 09:44:43;;;;;;;;;;;24.10;82.80;;;;;;4993358;28;19925;-63
2022/09/15 09:47:09;;;;;;;;;;;24.40;83.00;;;;;;4998053;28;19926;-62
2022/09/15 09:49:45;;;;;;;;;;;24.20;82.60;;;;;;5014961;28;20402;-62
2022/09/15 09:52:11;;;;;;;;;;;24.50;82.80;;;;;;5054019;28;20332;-62
2022/09/15 09:54:36;;;;;;;;;;;24.30;82.50;;;;;;5053772;28;19944;-63
2022/09/15 09:57:11;;;;;;;;;;;24.30;82.00;;;;;;5038647;28;20010;-62
2022/09/15 09:59:37;;;;;;;;;;;24.50;81.40;;;;;;5047152;28;20020;-63
2022/09/15 10:02:18;;;;;;;;;;;24.40;82.30;;;;;;5052299;28;19972;-62
2022/09/15 10:04:44;;;;;;;;;;;24.30;81.30;;;;;;5052665;28;19925;-62
2022/09/15 10:07:10;;;;;;;;;;;24.10;82.50;;;;;;5056031;28;20434;-62
2022/09/15 10:09:36;;;;;;;;;;;24.20;82.10;;;;;;5071901;28;19935;-62
2022/09/15 10:12:02;;;;;;;;;;;24.10;81.80;;;;;;5055126;28;19924;-62
2022/09/15 10:14:32;;;;;;;;;;;24.50;82.00;;;;;;5055164;28;20003;-62
2022/09/15 10:16:59;;;;;;;;;;;24.50;80.50;;;;;;5041175;28;20008;-62
2022/09/15 10:19:25;;;;;;;;;;;24.60;81.70;;;;;;5036554;28;19931;-65
2022/09/15 10:21:51;;;;;;;;;;;24.10;81.40;;;;;;5051587;28;19976;-66
2022/09/15 10:24:43;;;;;;;;;;;24.50;81.20;;;;;;5038070;28;19936;-63
2022/09/15 10:27:19;;;;;;;;;;;24.30;80.10;;;;;;5017334;28;20394;-62
2022/09/15 10:29:45;;;;;;;;;;;24.50;80.10;;;;;;5050236;28;19925;-62
2022/09/15 10:32:26;;;;;;;;;;;24.40;81.20;;;;;;5053730;28;20432;-62
2022/09/15 10:35:03;;;;;;;;;;;24.40;79.70;;;;;;5055000;28;20347;-62
2022/09/15 10:37:46;;;;;;;;;;;24.20;80.30;;;;;;5036966;28;19948;-62
2022/09/15 10:40:31;;;;;;;;;;;24.30;80.70;;;;;;5036194;28;19932;-63
2022/09/15 10:43:00;;;;;;;;;;;24.20;80.90;;;;;;5045252;28;20298;-64
2022/09/15 10:45:33;;;;;;;;;;;24.20;81.10;;;;;;5036518;28;20015;-63
2022/09/15 10:48:02;;;;;;;;;;;23.90;80.90;;;;;;5052568;28;19924;-63
2022/09/15 10:50:54;;;;;;;;;;;24.40;81.10;;;;;;5047445;28;19921;-63
2022/09/15 10:53:22;;;;;;;;;;;24.40;81.00;;;;;;5034385;28;19929;-64
2022/09/15 10:55:55;;;;;;;;;;;23.90;80.50;;;;;;5039507;28;19931;-62
2022/09/15 10:58:33;;;;;;;;;;;24.20;80.40;;;;;;5051870;28;20031;-66
2022/09/15 11:01:10;;;;;;;;;;;24.20;80.70;;;;;;5037637;28;19940;-81
2022/09/15 11:03:53;;;;;;;;;;;23.90;80.50;;;;;;5056212;28;19933;-64
2022/09/15 11:06:27;;;;;;;;;;;23.80;80.30;;;;;;5037497;28;20402;-80
2022/09/15 11:08:57;;;;;;;;;;;23.70;80.20;;;;;;5050803;28;19925;-71
2022/09/15 11:11:32;;;;;;;;;;;24.00;81.90;;;;;;5036060;28;19978;-62
2022/09/15 11:13:58;;;;;;;;;;;23.90;80.60;;;;;;5050767;28;19947;-62
2022/09/15 11:16:59;;;;;;;;;;;24.00;81.90;;;;;;5055165;28;20398;-62
2022/09/15 11:19:34;;;;;;;;;;;23.80;80.70;;;;;;5013250;28;19925;-62
2022/09/15 11:22:04;;;;;;;;;;;23.80;80.60;;;;;;5013446;28;19925;-63
2022/09/15 11:24:37;;;;;;;;;;;23.70;81.90;;;;;;5012480;28;19948;-63
2022/09/15 11:27:03;;;;;;;;;;;24.10;80.80;;;;;;5029483;28;19956;-62
2022/09/15 11:29:47;;;;;;;;;;;23.80;81.70;;;;;;5013171;28;20011;-62
2022/09/15 11:32:21;;;;;;;;;;;24.00;80.80;;;;;;5005677;28;20284;-62
2022/09/15 11:34:53;;;;;;;;;;;24.00;80.90;;;;;;4993681;28;19926;-62
2022/09/15 11:37:20;;;;;;;;;;;24.00;81.10;;;;;;4977449;28;20060;-62
2022/09/15 11:39:54;;;;;;;;;;;24.00;83.00;;;;;;4993451;28;20029;-62
2022/09/15 11:42:24;;;;;;;;;;;24.00;81.20;;;;;;5009114;28;19929;-63
2022/09/15 11:44:49;;;;;;;;;;;24.00;81.30;;;;;;5024023;28;19925;-62
2022/09/15 11:47:32;;;;;;;;;;;24.00;82.40;;;;;;5012742;28;20256;-64
2022/09/15 11:50:04;;;;;;;;;;;24.40;81.60;;;;;;5007458;28;19925;-73
2022/09/15 11:52:36;;;;;;;;;;;24.00;81.20;;;;;;5015817;28;19986;-63
2022/09/15 11:55:14;;;;;;;;;;;23.80;80.90;;;;;;5044480;28;19980;-71
2022/09/15 11:57:44;;;;;;;;;;;23.90;81.10;;;;;;5062305;28;20461;-62
2022/09/15 12:00:11;;;;;;;;;;;24.00;82.60;;;;;;5028903;28;19928;-61
2022/09/15 12:02:42;;;;;;;;;;;24.20;82.30;;;;;;5056940;28;19932;-63
2022/09/15 12:05:17;;;;;;;;;;;24.10;81.30;;;;;;5033376;28;19925;-62
2022/09/15 12:07:47;;;;;;;;;;;23.80;81.10;;;;;;5034500;28;20016;-63
2022/09/15 12:10:33;;;;;;;;;;;23.90;82.60;;;;;;5045790;28;19925;-62
2022/09/15 12:12:59;;;;;;;;;;;24.20;82.80;;;;;;5035553;28;20362;-62
2022/09/15 12:15:27;;;;;;;;;;;24.00;81.90;;;;;;5042111;28;19979;-62
2022/09/15 12:17:53;;;;;;;;;;;23.90;81.40;;;;;;5049208;28;19925;-63
2022/09/15 12:20:39;;;;;;;;;;;24.10;82.30;;;;;;5039914;28;20012;-62
2022/09/15 12:23:10;;;;;;;;;;;24.00;81.40;;;;;;5034591;28;19925;-62
2022/09/15 12:25:42;;;;;;;;;;;23.90;81.60;;;;;;5034024;28;19929;-63
2022/09/15 12:28:20;;;;;;;;;;;24.20;81.60;;;;;;5034103;28;19988;-62
2022/09/15 12:30:45;;;;;;;;;;;23.90;81.50;;;;;;5039778;28;19929;-63
2022/09/15 12:33:30;;;;;;;;;;;23.90;82.80;;;;;;5039387;28;20276;-62
2022/09/15 12:35:56;;;;;;;;;;;24.00;81.70;;;;;;5034091;28;19925;-62
2022/09/15 12:38:22;;;;;;;;;;;24.00;82.70;;;;;;5034179;28;20019;-63
2022/09/15 12:40:55;;;;;;;;;;;24.00;83.00;;;;;;5052619;28;20012;-62
2022/09/15 12:43:21;;;;;;;;;;;23.90;83.30;;;;;;5038050;28;20352;-62
2022/09/15 12:45:54;;;;;;;;;;;23.90;83.20;;;;;;5067534;28;20011;-62
2022/09/15 12:48:30;;;;;;;;;;;23.90;81.90;;;;;;5035614;28;19929;-62
2022/09/15 12:50:57;;;;;;;;;;;24.10;83.40;;;;;;5033865;28;19925;-62
2022/09/15 12:53:24;;;;;;;;;;;24.20;83.40;;;;;;5032430;28;19941;-62
2022/09/15 12:55:57;;;;;;;;;;;24.10;83.30;;;;;;5063310;28;19987;-62
2022/09/15 12:58:35;;;;;;;;;;;24.00;81.80;;;;;;5035539;28;19925;-61
2022/09/15 13:01:13;;;;;;;;;;;23.90;81.80;;;;;;5069376;28;19925;-62
2022/09/15 13:03:39;;;;;;;;;;;23.90;81.80;;;;;;5038231;28;19925;-62
2022/09/15 13:06:13;;;;;;;;;;;23.80;82.80;;;;;;5025761;28;19926;-62
2022/09/15 13:08:43;;;;;;;;;;;23.80;81.80;;;;;;5037320;28;20379;-63
2022/09/15 13:11:18;;;;;;;;;;;23.70;81.70;;;;;;5037535;28;20375;-62
2022/09/15 13:13:49;;;;;;;;;;;23.70;81.80;;;;;;5045416;28;19956;-62
2022/09/15 13:16:21;;;;;;;;;;;23.70;81.90;;;;;;5053408;28;20008;-62
2022/09/15 13:18:46;;;;;;;;;;;23.90;82.00;;;;;;5056442;28;19932;-62
2022/09/15 13:21:13;;;;;;;;;;;23.90;82.90;;;;;;5057017;28;20278;-62
2022/09/15 13:23:40;;;;;;;;;;;23.90;83.40;;;;;;5057497;28;19958;-63
2022/09/15 13:26:07;;;;;;;;;;;23.90;83.10;;;;;;5053855;28;20310;-62
2022/09/15 13:28:33;;;;;;;;;;;24.00;83.30;;;;;;5072629;28;20325;-62
2022/09/15 13:31:02;;;;;;;;;;;24.00;82.80;;;;;;5055968;28;20011;-62
2022/09/15 13:33:28;;;;;;;;;;;23.80;83.10;;;;;;5057407;28;20019;-62
2022/09/15 13:35:54;;;;;;;;;;;23.60;82.40;;;;;;5057378;28;20005;-62
2022/09/15 13:38:26;;;;;;;;;;;24.00;82.90;;;;;;5054549;28;20389;-62
2022/09/15 13:41:04;;;;;;;;;;;24.10;82.00;;;;;;5049371;28;19932;-62
2022/09/15 13:43:32;;;;;;;;;;;23.80;81.80;;;;;;5039018;28;20382;-62
2022/09/15 13:46:02;;;;;;;;;;;23.60;81.50;;;;;;5056817;28;19925;-62
2022/09/15 13:48:36;;;;;;;;;;;24.10;81.90;;;;;;5056801;28;19932;-61
2022/09/15 13:51:04;;;;;;;;;;;23.80;81.70;;;;;;5055507;28;19924;-62
2022/09/15 13:53:36;;;;;;;;;;;23.80;83.00;;;;;;5039253;28;19925;-62
2022/09/15 13:56:07;;;;;;;;;;;23.60;81.40;;;;;;5039498;28;20119;-63
2022/09/15 13:58:33;;;;;;;;;;;23.70;82.70;;;;;;5043095;28;19929;-79
2022/09/15 14:01:05;;;;;;;;;;;23.80;82.50;;;;;;5050923;28;19931;-63
2022/09/15 14:03:35;;;;;;;;;;;23.80;81.30;;;;;;5055683;28;19982;-63
2022/09/15 14:06:01;;;;;;;;;;;23.80;82.30;;;;;;5056643;28;19925;-62
2022/09/15 14:08:29;;;;;;;;;;;23.80;82.40;;;;;;5038171;28;19932;-62
2022/09/15 14:10:57;;;;;;;;;;;24.00;82.60;;;;;;5056347;28;19964;-62
2022/09/15 14:13:23;;;;;;;;;;;23.80;82.30;;;;;;5047780;28;19925;-62
2022/09/15 14:16:02;;;;;;;;;;;23.70;82.20;;;;;;5030802;28;19980;-62
2022/09/15 14:18:28;;;;;;;;;;;23.70;80.70;;;;;;5034846;28;19925;-62
2022/09/15 14:20:58;;;;;;;;;;;23.70;81.80;;;;;;5035428;28;20375;-62
2022/09/15 14:23:24;;;;;;;;;;;23.70;80.60;;;;;;5036220;28;19929;-62
2022/09/15 14:25:50;;;;;;;;;;;23.90;81.50;;;;;;5036273;28;19957;-62